Time;durP1;ratioP1;P1;durP2;ratioP2;P2;SDS_P1;SDS_P2;PMS_P1;PMS_P2;Temp;Humidity;BMP_temperature;BMP_pressure;BME280_temperature;BME280_humidity;BME280_pressure;Samples;Min_cycle;Max_cycle;Signal;HPM_P1;HPM_P2
2022/07/02 00:01:20;;;;;;;3.90;1.50;;;10.70;70.10;;;;;;5050681;28;45859;-63
2022/07/02 00:03:55;;;;;;;2.80;1.80;;;10.70;70.20;;;;;;5049263;28;46585;-63
2022/07/02 00:06:25;;;;;;;2.73;1.53;;;10.70;70.30;;;;;;5049874;28;47345;-62
2022/07/02 00:08:51;;;;;;;4.77;1.90;;;10.60;70.20;;;;;;5052054;28;46170;-63
2022/07/02 00:11:17;;;;;;;3.33;2.07;;;10.60;70.30;;;;;;5055502;28;46440;-61
2022/07/02 00:13:43;;;;;;;4.20;1.60;;;10.50;70.30;;;;;;5050496;28;46405;-61
2022/07/02 00:16:10;;;;;;;8.43;1.57;;;10.40;70.30;;;;;;5050757;28;46405;-61
2022/07/02 00:18:36;;;;;;;6.50;1.60;;;10.40;70.40;;;;;;5049707;28;46705;-63
2022/07/02 00:21:03;;;;;;;8.60;1.80;;;10.40;70.20;;;;;;5051272;28;46388;-63
2022/07/02 00:23:28;;;;;;;4.93;1.80;;;10.40;70.00;;;;;;5049446;28;46578;-62
2022/07/02 00:25:57;;;;;;;11.90;2.00;;;10.50;69.70;;;;;;5049750;28;46445;-61
2022/07/02 00:28:27;;;;;;;4.00;1.50;;;10.60;69.30;;;;;;5048692;28;46496;-61
2022/07/02 00:30:53;;;;;;;2.70;1.60;;;10.70;69.10;;;;;;5050123;28;46415;-62
2022/07/02 00:33:19;;;;;;;2.60;1.43;;;10.80;68.70;;;;;;5050229;28;46468;-61
2022/07/02 00:35:46;;;;;;;9.27;1.47;;;10.80;68.50;;;;;;5051072;28;46359;-62
2022/07/02 00:38:11;;;;;;;5.23;1.43;;;10.80;68.60;;;;;;5057550;28;45814;-61
2022/07/02 00:40:38;;;;;;;5.60;1.27;;;10.80;68.60;;;;;;5050444;28;46444;-60
2022/07/02 00:43:04;;;;;;;8.13;1.60;;;10.80;68.50;;;;;;5049186;28;45795;-64
2022/07/02 00:45:32;;;;;;;5.50;1.97;;;10.80;68.40;;;;;;5047895;28;47033;-61
2022/07/02 00:47:59;;;;;;;21.33;3.43;;;10.90;68.40;;;;;;5048751;28;45776;-62
2022/07/02 00:50:24;;;;;;;20.43;3.27;;;10.90;68.40;;;;;;5048396;28;46441;-61
2022/07/02 00:52:50;;;;;;;27.10;2.93;;;10.90;68.60;;;;;;5048192;28;46555;-62
2022/07/02 00:55:17;;;;;;;32.60;3.43;;;10.90;68.60;;;;;;5050888;28;46387;-61
2022/07/02 00:57:48;;;;;;;15.07;2.10;;;10.80;68.70;;;;;;5048887;28;46357;-61
2022/07/02 01:00:15;;;;;;;13.17;2.00;;;10.80;68.90;;;;;;5048075;28;46334;-62
2022/07/02 01:02:44;;;;;;;13.90;2.40;;;10.80;69.00;;;;;;5048353;28;46587;-61
2022/07/02 01:05:13;;;;;;;23.53;2.10;;;10.80;68.80;;;;;;5048645;28;46661;-61
2022/07/02 01:07:42;;;;;;;6.07;1.63;;;10.90;68.90;;;;;;5048295;28;46398;-60
2022/07/02 01:10:19;;;;;;;11.07;1.93;;;10.80;69.10;;;;;;5048300;28;46437;-62
2022/07/02 01:12:49;;;;;;;12.30;2.03;;;10.80;69.20;;;;;;5048469;28;46612;-62
2022/07/02 01:15:17;;;;;;;14.53;2.13;;;10.70;69.20;;;;;;5048363;28;47259;-64
2022/07/02 01:17:43;;;;;;;7.83;2.57;;;10.60;69.40;;;;;;5046589;28;46480;-58
2022/07/02 01:20:09;;;;;;;6.07;2.70;;;10.50;69.70;;;;;;5047522;28;46386;-63
2022/07/02 01:22:39;;;;;;;5.77;1.80;;;10.50;69.80;;;;;;5048919;28;46489;-61
2022/07/02 01:25:07;;;;;;;8.37;1.40;;;10.40;70.00;;;;;;5048181;28;46771;-62
2022/07/02 01:27:33;;;;;;;4.67;1.23;;;10.30;69.90;;;;;;5049166;28;46418;-61
2022/07/02 01:29:59;;;;;;;3.77;1.27;;;10.30;70.10;;;;;;5046662;28;46542;-64
2022/07/02 01:32:25;;;;;;;3.03;1.07;;;10.30;70.10;;;;;;5045355;28;46673;-62
2022/07/02 01:35:05;;;;;;;2.33;1.23;;;10.20;70.00;;;;;;5049060;28;46424;-62
2022/07/02 01:37:31;;;;;;;2.37;1.20;;;10.20;70.10;;;;;;5048616;28;46456;-61
2022/07/02 01:39:57;;;;;;;4.33;1.10;;;10.20;70.00;;;;;;5049133;28;46403;-62
2022/07/02 01:42:22;;;;;;;5.20;1.00;;;10.10;70.00;;;;;;5047742;28;46682;-61
2022/07/02 01:44:48;;;;;;;4.23;1.27;;;10.10;70.00;;;;;;5048860;28;46475;-63
2022/07/02 01:47:14;;;;;;;1.83;0.93;;;10.10;70.00;;;;;;5048064;28;46650;-62
2022/07/02 01:49:40;;;;;;;2.00;1.13;;;10.10;69.90;;;;;;5048456;28;46516;-62
2022/07/02 01:52:07;;;;;;;2.13;1.17;;;10.10;69.80;;;;;;5047304;28;46449;-63
2022/07/02 01:54:33;;;;;;;5.00;1.63;;;10.10;69.60;;;;;;5047782;28;47718;-63
2022/07/02 01:57:00;;;;;;;3.70;1.10;;;10.10;69.60;;;;;;5047478;28;46440;-62
2022/07/02 01:59:26;;;;;;;1.93;1.10;;;10.10;69.70;;;;;;5046232;28;46421;-62
2022/07/02 02:01:52;;;;;;;4.53;1.17;;;10.00;69.90;;;;;;5046624;28;46482;-62
2022/07/02 02:04:17;;;;;;;7.20;1.37;;;10.00;70.00;;;;;;5048724;28;47126;-61
2022/07/02 02:06:43;;;;;;;3.90;1.20;;;9.90;71.30;;;;;;5046811;28;45948;-62
2022/07/02 02:09:09;;;;;;;2.33;1.00;;;9.80;71.10;;;;;;5048123;28;46419;-60
2022/07/02 02:11:34;;;;;;;2.87;1.27;;;9.80;71.40;;;;;;5048038;28;46431;-63
2022/07/02 02:14:00;;;;;;;3.07;1.20;;;9.70;71.60;;;;;;5047578;28;45993;-62
2022/07/02 02:16:27;;;;;;;3.67;1.30;;;9.60;71.70;;;;;;5045434;28;46224;-64
2022/07/02 02:18:53;;;;;;;20.83;1.63;;;9.60;71.70;;;;;;5049192;28;46334;-62
2022/07/02 02:21:19;;;;;;;16.47;1.90;;;9.60;71.80;;;;;;5048373;28;46381;-61
2022/07/02 02:23:44;;;;;;;5.67;1.70;;;9.60;71.90;;;;;;5049413;28;47446;-62
2022/07/02 02:26:10;;;;;;;9.07;2.17;;;9.60;71.90;;;;;;5048537;28;46283;-60
2022/07/02 02:28:36;;;;;;;21.17;2.03;;;9.50;71.70;;;;;;5047335;28;46347;-62
2022/07/02 02:31:02;;;;;;;11.27;1.70;;;9.50;71.70;;;;;;5048145;28;46453;-61
2022/07/02 02:33:27;;;;;;;21.73;1.80;;;9.50;71.90;;;;;;5046373;28;46397;-61
2022/07/02 02:35:53;;;;;;;10.63;1.70;;;9.50;72.00;;;;;;5047289;28;46497;-63
2022/07/02 02:38:19;;;;;;;5.33;1.60;;;9.50;73.10;;;;;;5045554;28;46380;-61
2022/07/02 02:40:44;;;;;;;3.03;1.83;;;9.60;71.80;;;;;;5047647;28;46418;-62
2022/07/02 02:43:10;;;;;;;5.53;2.00;;;9.70;71.50;;;;;;5046992;28;46705;-63
2022/07/02 02:45:36;;;;;;;3.23;1.83;;;9.80;71.00;;;;;;5046749;28;46028;-61
2022/07/02 02:48:01;;;;;;;7.07;1.80;;;9.80;70.70;;;;;;5048298;28;46427;-62
2022/07/02 02:50:27;;;;;;;10.23;2.30;;;9.90;70.40;;;;;;5046507;28;46435;-64
2022/07/02 02:52:53;;;;;;;4.07;2.23;;;10.10;69.20;;;;;;5047920;28;47001;-62
2022/07/02 02:55:19;;;;;;;23.30;2.70;;;10.20;69.00;;;;;;5049284;28;46416;-64
2022/07/02 02:57:44;;;;;;;36.13;2.50;;;10.20;68.80;;;;;;5051247;28;46395;-65
2022/07/02 03:00:10;;;;;;;61.33;3.47;;;10.30;68.90;;;;;;5047714;28;46468;-62
2022/07/02 03:02:36;;;;;;;27.17;2.67;;;10.30;69.50;;;;;;5047348;28;46542;-61
2022/07/02 03:05:01;;;;;;;86.00;4.63;;;10.40;69.10;;;;;;5048456;28;46399;-63
2022/07/02 03:07:27;;;;;;;54.13;3.90;;;10.40;69.00;;;;;;5046322;28;46517;-61
2022/07/02 03:09:52;;;;;;;65.40;4.30;;;10.40;69.20;;;;;;5045264;28;46672;-62
2022/07/02 03:12:18;;;;;;;62.73;3.47;;;10.40;69.40;;;;;;5046950;28;46382;-64
2022/07/02 03:14:43;;;;;;;57.23;3.87;;;10.40;69.50;;;;;;5048494;28;46316;-62
2022/07/02 03:17:09;;;;;;;45.73;3.13;;;10.40;69.60;;;;;;5050393;28;46446;-62
2022/07/02 03:19:35;;;;;;;19.07;3.00;;;10.40;69.60;;;;;;5049419;28;46458;-62
2022/07/02 03:22:00;;;;;;;56.77;3.70;;;10.40;69.60;;;;;;5050493;28;46454;-63
2022/07/02 03:24:26;;;;;;;54.30;3.73;;;10.50;69.60;;;;;;5049827;28;46278;-62
2022/07/02 03:26:51;;;;;;;70.70;4.03;;;10.40;69.50;;;;;;5051405;28;46453;-61
2022/07/02 03:29:17;;;;;;;31.43;3.47;;;10.50;70.90;;;;;;5049724;28;46421;-62
2022/07/02 03:31:43;;;;;;;46.17;2.83;;;10.50;69.80;;;;;;5050451;28;47178;-62
2022/07/02 03:34:08;;;;;;;31.90;3.23;;;10.50;69.90;;;;;;5050866;28;46542;-60
2022/07/02 03:36:34;;;;;;;19.47;2.70;;;10.50;70.00;;;;;;5050711;28;46405;-61
2022/07/02 03:38:59;;;;;;;20.07;2.20;;;10.40;70.40;;;;;;5050369;28;46659;-63
2022/07/02 03:41:25;;;;;;;22.73;3.47;;;10.40;70.50;;;;;;5050626;28;46377;-62
2022/07/02 03:43:51;;;;;;;25.00;2.50;;;10.40;70.50;;;;;;5050462;28;46431;-63
2022/07/02 03:46:17;;;;;;;4.20;2.60;;;10.50;70.50;;;;;;5050843;28;46444;-61
2022/07/02 03:48:44;;;;;;;9.10;2.10;;;10.60;70.00;;;;;;5049620;28;46445;-62
2022/07/02 03:51:09;;;;;;;7.07;1.90;;;10.70;69.80;;;;;;5050806;28;46946;-62
2022/07/02 03:53:35;;;;;;;15.43;1.60;;;10.70;69.80;;;;;;5047942;28;46453;-61
2022/07/02 03:56:02;;;;;;;16.30;3.00;;;10.80;69.50;;;;;;5050175;28;46331;-62
2022/07/02 03:58:29;;;;;;;26.13;2.70;;;10.90;69.50;;;;;;5047490;28;46484;-63
2022/07/02 04:00:54;;;;;;;17.63;2.57;;;11.00;69.30;;;;;;5050649;28;48148;-62
2022/07/02 04:03:20;;;;;;;30.53;2.27;;;11.10;69.10;;;;;;5050396;28;46323;-62
2022/07/02 04:05:45;;;;;;;14.27;2.00;;;11.20;69.00;;;;;;5050199;28;46359;-62
2022/07/02 04:08:11;;;;;;;2.70;1.70;;;11.30;68.80;;;;;;5049581;28;46444;-62
2022/07/02 04:10:37;;;;;;;4.70;1.60;;;11.40;68.70;;;;;;5049173;28;46449;-63
2022/07/02 04:13:03;;;;;;;10.47;1.50;;;11.40;68.70;;;;;;5050215;28;46437;-62
2022/07/02 04:15:29;;;;;;;4.33;1.60;;;11.40;68.90;;;;;;5050943;28;46456;-62
2022/07/02 04:17:54;;;;;;;7.47;2.10;;;11.20;69.20;;;;;;5049998;28;45842;-61
2022/07/02 04:20:20;;;;;;;4.23;1.60;;;11.10;69.50;;;;;;5051208;28;46494;-62
2022/07/02 04:22:45;;;;;;;8.60;1.33;;;11.00;69.60;;;;;;5048477;28;46445;-62
2022/07/02 04:25:11;;;;;;;8.93;1.53;;;11.10;69.40;;;;;;5049135;28;46501;-60
2022/07/02 04:27:37;;;;;;;10.43;1.60;;;11.10;69.40;;;;;;5050870;28;46658;-63
2022/07/02 04:30:03;;;;;;;5.80;1.40;;;11.10;69.00;;;;;;5047934;28;46479;-62
2022/07/02 04:32:28;;;;;;;2.40;1.50;;;11.20;68.60;;;;;;5042903;28;46718;-61
2022/07/02 04:34:54;;;;;;;12.03;1.27;;;11.40;68.30;;;;;;5047896;28;46378;-62
2022/07/02 04:37:19;;;;;;;4.80;1.30;;;11.40;68.00;;;;;;5049578;28;46441;-62
2022/07/02 04:39:45;;;;;;;4.40;1.47;;;11.40;68.00;;;;;;5047488;28;46988;-61
2022/07/02 04:42:10;;;;;;;2.00;1.10;;;11.50;67.60;;;;;;5049230;28;46311;-62
2022/07/02 04:44:36;;;;;;;5.20;1.50;;;11.60;67.30;;;;;;5050077;28;46538;-63
2022/07/02 04:47:02;;;;;;;6.70;1.40;;;12.00;66.30;;;;;;5049584;28;46501;-63
2022/07/02 04:49:27;;;;;;;3.13;1.00;;;13.60;64.70;;;;;;5048873;28;46582;-60
2022/07/02 04:51:53;;;;;;;4.57;1.20;;;15.90;62.70;;;;;;5049236;28;46331;-63
2022/07/02 04:54:18;;;;;;;9.00;1.20;;;18.00;58.10;;;;;;5050613;28;46500;-63
2022/07/02 04:56:44;;;;;;;3.80;1.30;;;19.70;53.50;;;;;;5049489;28;46418;-62
2022/07/02 04:59:10;;;;;;;1.90;0.90;;;21.10;50.20;;;;;;5047335;28;47066;-63
2022/07/02 05:01:35;;;;;;;3.00;1.20;;;22.20;47.70;;;;;;5046663;28;46555;-62
2022/07/02 05:04:01;;;;;;;4.07;1.30;;;23.10;45.10;;;;;;5048565;28;46382;-61
2022/07/02 05:06:26;;;;;;;2.77;1.60;;;24.00;43.20;;;;;;5047526;28;46452;-63
2022/07/02 05:08:52;;;;;;;6.53;2.10;;;24.80;40.50;;;;;;5046629;28;46335;-62
2022/07/02 05:11:19;;;;;;;3.87;1.60;;;25.20;38.80;;;;;;5048304;28;45822;-62
2022/07/02 05:13:48;;;;;;;5.17;1.87;;;25.60;37.70;;;;;;5048358;28;45938;-61
2022/07/02 05:16:15;;;;;;;4.93;1.50;;;25.30;37.90;;;;;;5048765;28;46464;-63
2022/07/02 05:18:41;;;;;;;5.10;1.70;;;25.50;37.20;;;;;;5047822;28;46752;-62
2022/07/02 05:21:06;;;;;;;4.60;1.53;;;25.90;35.40;;;;;;5048719;28;46348;-62
2022/07/02 05:23:32;;;;;;;5.43;2.13;;;25.80;34.40;;;;;;5047364;28;46388;-62
2022/07/02 05:25:58;;;;;;;2.73;1.60;;;25.20;34.10;;;;;;5048221;28;46152;-63
2022/07/02 05:28:23;;;;;;;3.33;1.50;;;25.20;33.80;;;;;;5047290;28;46359;-63
2022/07/02 05:30:50;;;;;;;3.23;1.40;;;25.00;33.20;;;;;;5047577;28;46543;-62
2022/07/02 05:33:15;;;;;;;4.53;1.77;;;25.10;33.90;;;;;;5049293;28;46158;-63
2022/07/02 05:35:41;;;;;;;3.10;1.90;;;25.60;30.60;;;;;;5048173;28;46603;-61
2022/07/02 05:38:07;;;;;;;4.57;1.30;;;26.30;28.60;;;;;;5047743;28;46899;-61
2022/07/02 05:40:32;;;;;;;3.53;1.53;;;27.10;27.10;;;;;;5047471;28;47044;-62
2022/07/02 05:42:58;;;;;;;4.67;1.10;;;27.20;25.70;;;;;;5046539;28;46599;-61
2022/07/02 05:45:23;;;;;;;4.03;1.77;;;27.40;25.50;;;;;;5049474;28;46415;-61
2022/07/02 05:47:49;;;;;;;6.00;1.60;;;28.10;24.10;;;;;;5047301;28;46760;-61
2022/07/02 05:50:15;;;;;;;6.23;1.53;;;28.30;23.50;;;;;;5047804;28;46452;-61
2022/07/02 05:52:40;;;;;;;5.70;1.63;;;28.30;22.60;;;;;;5045349;28;46903;-61
2022/07/02 05:55:06;;;;;;;4.37;1.57;;;28.30;21.70;;;;;;5046615;28;46623;-60
2022/07/02 05:57:32;;;;;;;5.33;1.70;;;27.60;22.90;;;;;;5044718;28;46751;-61
2022/07/02 05:59:58;;;;;;;5.67;1.30;;;25.30;27.10;;;;;;5047671;28;47342;-60
2022/07/02 06:02:23;;;;;;;2.73;1.50;;;23.60;31.60;;;;;;5046814;28;46442;-63
2022/07/02 06:04:49;;;;;;;2.60;1.30;;;22.30;35.30;;;;;;5047046;28;46358;-62
2022/07/02 06:09:59;;;;;;;3.67;1.53;;;20.60;39.20;;;;;;5046307;28;46563;-61
2022/07/02 06:12:25;;;;;;;3.10;1.00;;;20.00;40.80;;;;;;5045862;28;46330;-60
2022/07/02 06:14:51;;;;;;;3.57;1.30;;;19.40;41.40;;;;;;5046006;28;46419;-63
2022/07/02 06:17:17;;;;;;;2.30;1.00;;;19.30;41.50;;;;;;5046268;28;47298;-61
2022/07/02 06:19:45;;;;;;;4.17;1.10;;;19.30;41.10;;;;;;5045405;28;46448;-62
2022/07/02 06:22:11;;;;;;;2.40;1.10;;;19.10;41.10;;;;;;5045864;28;46433;-62
2022/07/02 06:24:36;;;;;;;3.10;1.17;;;19.10;40.90;;;;;;5046986;28;46428;-61
2022/07/02 06:27:02;;;;;;;4.40;1.10;;;19.00;40.90;;;;;;5044997;28;46419;-61
2022/07/02 06:29:28;;;;;;;4.80;1.27;;;19.00;41.00;;;;;;5046533;28;46396;-62
2022/07/02 06:31:53;;;;;;;4.80;1.20;;;18.90;41.30;;;;;;5046804;28;46487;-61
2022/07/02 06:34:19;;;;;;;3.40;1.33;;;19.00;41.30;;;;;;5046156;28;46426;-63
2022/07/02 06:36:45;;;;;;;2.37;1.20;;;18.90;41.80;;;;;;5046637;28;46381;-62
2022/07/02 06:39:11;;;;;;;4.10;1.50;;;18.80;42.80;;;;;;5044053;28;46200;-61
2022/07/02 06:44:21;;;;;;;4.60;1.20;;;18.70;43.60;;;;;;5046793;28;46446;-61
2022/07/02 06:46:46;;;;;;;2.73;1.13;;;18.80;43.30;;;;;;5045945;28;46436;-62
2022/07/02 06:49:12;;;;;;;2.20;1.00;;;18.80;43.30;;;;;;5045585;28;46481;-60
2022/07/02 06:51:37;;;;;;;3.27;1.67;;;18.80;44.10;;;;;;5044386;28;46720;-60
2022/07/02 06:54:03;;;;;;;4.20;1.60;;;18.80;44.30;;;;;;5044596;28;46563;-61
2022/07/02 06:56:32;;;;;;;9.50;1.60;;;18.90;44.30;;;;;;5045698;28;46490;-61
2022/07/02 06:58:57;;;;;;;3.07;1.60;;;18.90;44.80;;;;;;5045426;28;46482;-62
2022/07/02 07:01:23;;;;;;;3.20;1.63;;;18.90;44.90;;;;;;5047694;28;45885;-61
2022/07/02 07:03:49;;;;;;;4.97;1.50;;;18.90;45.00;;;;;;5046990;28;46850;-60
2022/07/02 07:06:15;;;;;;;3.23;1.50;;;19.00;45.00;;;;;;5047532;28;46394;-60
2022/07/02 07:08:41;;;;;;;3.80;1.43;;;19.00;44.70;;;;;;5046265;28;46461;-62
2022/07/02 07:11:06;;;;;;;4.10;1.20;;;19.10;45.00;;;;;;5046898;28;46017;-61
2022/07/02 07:13:32;;;;;;;10.03;2.50;;;18.90;45.30;;;;;;5046375;28;46589;-62
2022/07/02 07:15:57;;;;;;;3.43;1.50;;;18.80;45.80;;;;;;5045787;28;46759;-60
2022/07/02 07:18:23;;;;;;;2.83;1.50;;;18.80;45.90;;;;;;5044667;28;46434;-61
2022/07/02 07:20:50;;;;;;;2.90;1.53;;;18.80;46.00;;;;;;5045945;28;46455;-62
2022/07/02 07:23:15;;;;;;;3.10;1.17;;;18.90;45.60;;;;;;5045720;28;47703;-60
2022/07/02 07:25:41;;;;;;;3.10;1.30;;;18.80;45.60;;;;;;5044991;28;46413;-62
2022/07/02 07:28:07;;;;;;;2.47;1.20;;;18.70;45.70;;;;;;5045036;28;45844;-61
2022/07/02 07:30:32;;;;;;;4.33;1.57;;;18.60;45.60;;;;;;5044988;28;46442;-62
2022/07/02 07:32:58;;;;;;;3.90;1.13;;;18.70;46.00;;;;;;5042330;28;46895;-61
2022/07/02 07:35:23;;;;;;;2.60;1.10;;;18.80;45.60;;;;;;5045359;28;47166;-61
2022/07/02 07:37:57;;;;;;;4.30;1.87;;;18.90;44.90;;;;;;5044322;28;46395;-60
2022/07/02 07:40:23;;;;;;;2.90;1.50;;;19.00;44.70;;;;;;5045945;28;46380;-59
2022/07/02 07:42:49;;;;;;;2.83;1.47;;;19.20;44.80;;;;;;5045336;28;46305;-62
2022/07/02 07:45:15;;;;;;;3.77;1.50;;;19.40;45.00;;;;;;5046344;28;46749;-61
2022/07/02 07:47:40;;;;;;;3.30;1.40;;;19.60;44.90;;;;;;5046311;28;46453;-61
2022/07/02 07:50:06;;;;;;;3.57;1.60;;;19.70;44.80;;;;;;5046747;28;46932;-61
2022/07/02 07:52:32;;;;;;;3.50;1.57;;;19.70;44.40;;;;;;5045468;28;46484;-62
2022/07/02 07:54:57;;;;;;;6.20;1.60;;;19.50;44.60;;;;;;5045021;28;46387;-61
2022/07/02 07:57:23;;;;;;;2.57;1.37;;;19.40;45.30;;;;;;5045805;28;46600;-62
2022/07/02 07:59:49;;;;;;;2.53;1.10;;;19.40;44.90;;;;;;5045941;28;46509;-63
2022/07/02 08:02:15;;;;;;;3.07;1.20;;;19.60;44.60;;;;;;5049365;28;46560;-61
2022/07/02 08:04:41;;;;;;;3.43;1.33;;;19.90;44.20;;;;;;5048753;28;46425;-59
2022/07/02 08:07:07;;;;;;;2.70;1.20;;;19.80;43.30;;;;;;5050205;28;46364;-61
2022/07/02 08:09:33;;;;;;;2.70;1.37;;;19.80;42.90;;;;;;5049442;28;45992;-61
2022/07/02 08:11:58;;;;;;;2.60;1.40;;;19.80;42.70;;;;;;5049850;28;46676;-61
2022/07/02 08:14:24;;;;;;;7.37;1.53;;;20.20;42.40;;;;;;5050315;28;47158;-60
2022/07/02 08:16:49;;;;;;;3.00;1.73;;;20.20;42.50;;;;;;5049148;28;46741;-61
2022/07/02 08:19:15;;;;;;;2.83;1.57;;;20.10;42.20;;;;;;5048738;28;46394;-62
2022/07/02 08:21:41;;;;;;;4.30;1.90;;;20.00;42.90;;;;;;5051028;28;46483;-60
2022/07/02 08:24:06;;;;;;;2.57;1.40;;;20.10;43.10;;;;;;5046881;28;46693;-60
2022/07/02 08:26:32;;;;;;;2.37;1.23;;;20.20;42.80;;;;;;5047751;28;46388;-61
2022/07/02 08:28:57;;;;;;;5.20;2.10;;;20.10;42.90;;;;;;5050420;28;46744;-63
2022/07/02 08:31:23;;;;;;;3.10;1.30;;;20.00;42.80;;;;;;5050514;28;46914;-60
2022/07/02 08:33:49;;;;;;;4.00;1.03;;;20.00;42.70;;;;;;5048734;28;46793;-61
2022/07/02 08:36:14;;;;;;;2.97;1.10;;;20.00;42.30;;;;;;5048138;28;46463;-62
2022/07/02 08:38:40;;;;;;;2.93;1.10;;;20.00;41.50;;;;;;5048660;28;46442;-61
2022/07/02 08:41:07;;;;;;;2.70;1.10;;;20.20;41.20;;;;;;5049237;28;46438;-60
2022/07/02 08:43:34;;;;;;;4.40;1.20;;;20.20;40.50;;;;;;5047761;28;47571;-60
2022/07/02 08:46:04;;;;;;;7.20;1.00;;;20.20;40.40;;;;;;5049336;28;46415;-62
2022/07/02 08:48:33;;;;;;;2.20;1.10;;;20.30;40.10;;;;;;5047977;28;46401;-62
2022/07/02 08:50:58;;;;;;;2.37;1.10;;;20.40;39.70;;;;;;5063433;28;46527;-63
2022/07/02 08:53:24;;;;;;;7.90;1.00;;;20.50;39.00;;;;;;5048527;28;46365;-61
2022/07/02 08:55:50;;;;;;;2.53;1.20;;;20.60;39.00;;;;;;5047247;28;46693;-62
2022/07/02 08:58:17;;;;;;;2.53;1.40;;;20.60;38.50;;;;;;5049420;28;46299;-61
2022/07/02 09:00:43;;;;;;;3.77;1.17;;;20.70;37.90;;;;;;5046161;28;46504;-61
2022/07/02 09:03:09;;;;;;;3.27;1.20;;;20.70;37.70;;;;;;5048482;28;46542;-63
2022/07/02 09:05:37;;;;;;;3.13;1.07;;;20.70;37.50;;;;;;5049243;28;46374;-62
2022/07/02 09:08:03;;;;;;;2.90;1.20;;;21.00;37.50;;;;;;5047859;28;46550;-63
2022/07/02 09:10:30;;;;;;;2.60;1.20;;;21.20;37.00;;;;;;5046694;28;46652;-62
2022/07/02 09:12:56;;;;;;;3.13;1.40;;;21.40;36.70;;;;;;5046689;28;46474;-60
2022/07/02 09:15:22;;;;;;;4.00;1.20;;;21.40;36.90;;;;;;5051360;28;46844;-62
2022/07/02 09:17:48;;;;;;;3.80;1.20;;;21.20;37.20;;;;;;5047648;28;46472;-60
2022/07/02 09:20:14;;;;;;;3.43;1.50;;;21.20;37.30;;;;;;5047564;28;46442;-59
2022/07/02 09:22:48;;;;;;;2.50;1.10;;;21.20;37.40;;;;;;5046973;28;48180;-61
2022/07/02 09:25:23;;;;;;;2.03;1.00;;;21.30;36.80;;;;;;5046090;28;46513;-60
2022/07/02 09:27:58;;;;;;;6.57;1.70;;;21.40;35.30;;;;;;5049014;28;45897;-60
2022/07/02 09:30:24;;;;;;;3.00;1.43;;;21.50;35.40;;;;;;5046039;28;46419;-62
2022/07/02 09:32:49;;;;;;;3.23;1.53;;;21.40;35.00;;;;;;5046280;28;47271;-61
2022/07/02 09:35:19;;;;;;;3.30;1.53;;;21.40;35.70;;;;;;5047289;28;46421;-61
2022/07/02 09:37:46;;;;;;;4.20;1.80;;;21.50;36.50;;;;;;5044972;28;46312;-63
2022/07/02 09:40:12;;;;;;;3.60;1.57;;;21.70;36.40;;;;;;5045454;28;46563;-61
2022/07/02 09:42:38;;;;;;;3.23;1.77;;;21.70;36.60;;;;;;5045801;28;48068;-61
2022/07/02 09:45:05;;;;;;;11.30;2.30;;;21.70;37.00;;;;;;5046810;28;46428;-58
2022/07/02 09:47:35;;;;;;;3.10;1.60;;;21.80;36.90;;;;;;5044638;28;46379;-62
2022/07/02 09:50:03;;;;;;;3.10;1.63;;;21.60;37.10;;;;;;5044815;28;46582;-64
2022/07/02 09:52:29;;;;;;;5.73;1.70;;;21.70;37.60;;;;;;5045574;28;46799;-61
2022/07/02 09:54:54;;;;;;;3.83;1.50;;;21.70;37.70;;;;;;5044878;28;46811;-60
2022/07/02 09:57:20;;;;;;;2.80;1.40;;;21.90;37.60;;;;;;5044830;28;46506;-60
2022/07/02 09:59:45;;;;;;;3.27;1.43;;;21.90;36.90;;;;;;5045514;28;46559;-61
2022/07/02 10:02:22;;;;;;;5.10;1.50;;;21.80;36.50;;;;;;5044891;28;46635;-62
2022/07/02 10:04:53;;;;;;;2.67;1.13;;;21.80;35.70;;;;;;5046391;28;46583;-61
2022/07/02 10:07:20;;;;;;;2.83;1.30;;;21.70;35.60;;;;;;5047935;28;46370;-62
2022/07/02 10:09:47;;;;;;;4.27;1.50;;;21.80;35.70;;;;;;5044555;28;46356;-61
2022/07/02 10:12:14;;;;;;;4.77;1.10;;;21.90;34.90;;;;;;5046393;28;46342;-61
2022/07/02 10:14:42;;;;;;;2.10;1.00;;;22.00;34.40;;;;;;5047316;28;46403;-61
2022/07/02 10:17:08;;;;;;;2.10;1.00;;;22.10;33.40;;;;;;5047379;28;45999;-60
2022/07/02 10:19:34;;;;;;;4.53;1.30;;;22.20;33.00;;;;;;5046969;28;46662;-62
2022/07/02 10:22:01;;;;;;;3.10;1.00;;;22.20;32.00;;;;;;5045568;28;47410;-61
2022/07/02 10:24:27;;;;;;;3.50;1.20;;;22.20;31.20;;;;;;5044885;28;46413;-62
2022/07/02 10:26:59;;;;;;;2.33;0.90;;;22.30;29.80;;;;;;5047278;28;46393;-62
2022/07/02 10:29:25;;;;;;;2.60;1.00;;;22.20;29.40;;;;;;5046199;28;46409;-62
2022/07/02 10:31:59;;;;;;;2.63;1.17;;;22.20;29.10;;;;;;5037975;28;46574;-62
2022/07/02 10:34:36;;;;;;;2.97;1.07;;;22.10;28.50;;;;;;5045359;28;46514;-62
2022/07/02 10:37:01;;;;;;;3.60;1.10;;;22.10;28.00;;;;;;5046990;28;46398;-61
2022/07/02 10:39:39;;;;;;;2.10;0.90;;;22.00;27.60;;;;;;5046733;28;46579;-60
2022/07/02 10:42:05;;;;;;;3.30;1.10;;;22.00;27.60;;;;;;5041098;28;47280;-61
2022/07/02 10:44:41;;;;;;;3.23;0.90;;;22.10;27.50;;;;;;5043673;28;46734;-62
2022/07/02 10:48:00;;;;;;;2.30;1.10;;;22.30;27.10;;;;;;5046733;28;46433;-59
2022/07/02 10:50:46;;;;;;;2.90;1.10;;;22.20;27.60;;;;;;5037833;28;46462;-59
2022/07/02 10:53:14;;;;;;;3.03;1.10;;;22.30;28.10;;;;;;5044074;28;47784;-63
2022/07/02 10:55:58;;;;;;;4.40;1.13;;;22.50;28.70;;;;;;5044023;28;46455;-62
2022/07/02 10:58:26;;;;;;;2.13;1.00;;;22.60;27.90;;;;;;5045097;28;46502;-61
2022/07/02 11:00:52;;;;;;;7.73;1.37;;;22.70;27.80;;;;;;5044710;28;46776;-64
2022/07/02 11:03:20;;;;;;;2.53;1.17;;;22.70;27.70;;;;;;5046187;28;46498;-61
2022/07/02 11:05:57;;;;;;;9.33;2.20;;;22.70;27.30;;;;;;5044958;28;46505;-61
2022/07/02 11:08:59;;;;;;;2.60;1.30;;;22.50;27.10;;;;;;5045233;28;47213;-60
2022/07/02 11:11:34;;;;;;;2.50;1.27;;;22.60;27.40;;;;;;5045984;28;46446;-62
2022/07/02 11:14:11;;;;;;;2.87;1.50;;;22.80;27.00;;;;;;5060004;28;48091;-60
2022/07/02 11:16:46;;;;;;;4.37;2.00;;;22.80;26.30;;;;;;5046088;28;46543;-62
2022/07/02 11:19:20;;;;;;;4.27;2.27;;;23.00;26.50;;;;;;5042890;28;46489;-62
2022/07/02 11:21:47;;;;;;;3.93;2.37;;;23.10;26.20;;;;;;5044531;28;46782;-64
2022/07/02 11:24:21;;;;;;;3.87;2.67;;;22.90;26.50;;;;;;5043415;28;48267;-61
2022/07/02 11:26:46;;;;;;;6.27;2.63;;;23.10;26.60;;;;;;5045230;28;46866;-61
2022/07/02 11:29:13;;;;;;;3.17;1.90;;;23.10;26.70;;;;;;5045725;28;46505;-64
2022/07/02 11:31:42;;;;;;;5.50;2.80;;;22.90;26.30;;;;;;5043450;28;46617;-62
2022/07/02 11:34:08;;;;;;;4.70;2.80;;;23.00;26.30;;;;;;5043366;28;48058;-61
2022/07/02 11:36:37;;;;;;;5.97;2.90;;;22.90;26.40;;;;;;5048327;28;46467;-62
2022/07/02 11:39:18;;;;;;;7.90;3.03;;;22.90;26.20;;;;;;5047838;28;46386;-61
2022/07/02 11:41:45;;;;;;;5.13;2.80;;;22.90;25.80;;;;;;5045807;28;46498;-60
2022/07/02 11:44:22;;;;;;;4.90;3.07;;;22.80;26.00;;;;;;5047911;28;47342;-60
2022/07/02 11:46:58;;;;;;;6.40;2.90;;;22.90;26.20;;;;;;5047913;28;46491;-63
2022/07/02 11:49:26;;;;;;;4.90;2.50;;;22.90;25.90;;;;;;5048405;28;46722;-60
2022/07/02 11:51:54;;;;;;;4.00;2.33;;;23.10;25.90;;;;;;5046954;28;46694;-63
2022/07/02 11:54:22;;;;;;;5.77;2.87;;;23.00;25.60;;;;;;5046880;28;47351;-60
2022/07/02 11:56:50;;;;;;;4.50;2.87;;;23.00;25.40;;;;;;5045754;28;46313;-62
2022/07/02 11:59:24;;;;;;;6.50;2.47;;;23.10;25.80;;;;;;5047097;28;46406;-62
2022/07/02 12:01:51;;;;;;;4.33;2.00;;;23.10;25.00;;;;;;5046628;28;46354;-60
2022/07/02 12:04:20;;;;;;;4.00;2.13;;;23.00;24.50;;;;;;5052730;28;46562;-64
2022/07/02 12:06:49;;;;;;;7.63;2.00;;;23.00;24.50;;;;;;5048170;28;46456;-62
2022/07/02 12:09:17;;;;;;;3.23;1.90;;;23.10;24.80;;;;;;5046842;28;46745;-62
2022/07/02 12:11:46;;;;;;;7.20;1.60;;;23.20;24.70;;;;;;5048528;28;46591;-61
2022/07/02 12:14:15;;;;;;;3.20;1.63;;;23.20;24.70;;;;;;5049610;28;46485;-59
2022/07/02 12:16:52;;;;;;;4.17;1.60;;;23.40;25.20;;;;;;5048841;28;46594;-60
2022/07/02 12:19:18;;;;;;;2.80;1.20;;;23.40;24.80;;;;;;5049062;28;46438;-60
2022/07/02 12:21:46;;;;;;;2.70;1.23;;;23.50;24.90;;;;;;5047986;28;46482;-62
2022/07/02 12:24:29;;;;;;;2.80;1.30;;;23.40;24.10;;;;;;5049667;28;46523;-61
2022/07/02 12:26:55;;;;;;;2.53;1.27;;;23.40;23.30;;;;;;5050899;28;46417;-62
2022/07/02 12:32:13;;;;;;;7.27;1.40;;;23.60;24.20;;;;;;5049998;28;46394;-60
2022/07/02 12:34:41;;;;;;;3.00;1.00;;;23.60;24.00;;;;;;5048144;28;46518;-61
2022/07/02 12:37:10;;;;;;;2.60;1.20;;;23.70;24.10;;;;;;5048553;28;46354;-61
2022/07/02 12:39:40;;;;;;;5.23;1.20;;;23.70;23.90;;;;;;5047652;28;46493;-63
2022/07/02 12:42:24;;;;;;;5.43;1.60;;;23.60;24.20;;;;;;5046778;28;46529;-61
2022/07/02 12:44:53;;;;;;;3.87;1.10;;;23.60;24.00;;;;;;5039914;28;46504;-60
2022/07/02 12:47:39;;;;;;;1.97;1.07;;;23.60;23.80;;;;;;5046662;28;46521;-62
2022/07/02 12:50:13;;;;;;;2.73;1.17;;;23.70;23.80;;;;;;5046754;28;46392;-60
2022/07/02 12:52:53;;;;;;;3.80;1.20;;;23.70;24.00;;;;;;5046665;28;46635;-61
2022/07/02 12:55:41;;;;;;;2.23;1.00;;;23.80;23.70;;;;;;5046693;28;47322;-62